createdAt,value
2019-03-01T00:00:31.207Z,12.03
2019-03-01T00:03:04.391Z,11.50
2019-03-01T00:06:21.152Z,11.60
2019-03-01T00:09:53.575Z,12.13
2019-03-01T00:13:05.214Z,12.03
2019-03-01T00:16:15.408Z,11.20
2019-03-01T00:19:39.977Z,11.37
2019-03-01T00:22:58.168Z,12.07
2019-03-01T00:26:27.090Z,12.80
2019-03-01T00:30:16.557Z,13.60
2019-03-01T00:33:07.124Z,12.77
2019-03-01T00:36:29.736Z,13.62
2019-03-01T00:39:32.326Z,11.90
2019-03-01T00:42:55.429Z,12.33
2019-03-01T00:45:28.448Z,11.27
2019-03-01T00:48:01.419Z,11.57
2019-03-01T00:50:33.982Z,12.93
2019-03-01T00:53:06.668Z,12.10
2019-03-01T00:55:40.816Z,12.17
2019-03-01T00:58:15.205Z,13.40
2019-03-01T01:00:49.515Z,11.57
2019-03-01T01:03:22.468Z,12.37
2019-03-01T01:05:55.416Z,12.50
2019-03-01T01:08:29.114Z,12.20
2019-03-01T01:11:03.271Z,13.03
2019-03-01T01:13:36.712Z,12.03
2019-03-01T01:16:09.943Z,14.00
2019-03-01T01:18:42.863Z,14.93
2019-03-01T01:21:15.315Z,13.20
2019-03-01T01:23:47.951Z,13.80
2019-03-01T01:26:22.585Z,13.33
2019-03-01T01:28:55.705Z,13.93
2019-03-01T01:31:28.369Z,14.50
2019-03-01T01:34:01.342Z,14.80
2019-03-01T01:36:34.608Z,15.10
2019-03-01T01:39:10.255Z,14.53
2019-03-01T01:41:43.834Z,14.17
2019-03-01T01:44:16.298Z,15.68
2019-03-01T01:47:00.250Z,14.67
2019-03-01T01:49:32.906Z,15.13
2019-03-01T01:52:05.970Z,14.67
2019-03-01T01:54:38.559Z,15.07
2019-03-01T01:57:11.039Z,14.57
2019-03-01T01:59:45.581Z,15.00
2019-03-01T02:02:18.457Z,17.33
2019-03-01T02:04:52.954Z,16.03
2019-03-01T02:07:27.151Z,16.00
2019-03-01T02:09:59.740Z,15.63
2019-03-01T02:12:32.306Z,15.17
2019-03-01T02:15:09.748Z,17.17
2019-03-01T02:17:44.815Z,16.67
2019-03-01T02:20:18.918Z,16.08
2019-03-01T02:22:53.114Z,16.30
2019-03-01T02:25:25.479Z,15.47
2019-03-01T02:27:58.168Z,16.27
2019-03-01T02:30:31.783Z,14.80
2019-03-01T02:33:05.322Z,15.00
2019-03-01T02:35:37.827Z,17.10
2019-03-01T02:38:10.785Z,16.30
2019-03-01T02:40:43.326Z,17.57
2019-03-01T02:43:15.957Z,17.80
2019-03-01T02:45:50.605Z,18.70
2019-03-01T02:48:23.319Z,18.67
2019-03-01T02:50:55.914Z,20.27
2019-03-01T02:53:29.095Z,18.97
2019-03-01T02:56:01.631Z,21.20
2019-03-01T02:58:34.173Z,19.97
2019-03-01T03:01:06.981Z,20.77
2019-03-01T03:03:40.441Z,20.87
2019-03-01T03:06:28.142Z,22.60
2019-03-01T03:09:03.195Z,22.87
2019-03-01T03:11:35.862Z,23.20
2019-03-01T03:14:08.778Z,22.97
2019-03-01T03:16:42.212Z,23.40
2019-03-01T03:19:14.772Z,23.20
2019-03-01T03:21:47.301Z,22.97
2019-03-01T03:24:20.480Z,22.50
2019-03-01T03:26:52.917Z,23.87
2019-03-01T03:29:25.467Z,24.63
2019-03-01T03:31:58.500Z,24.77
2019-03-01T03:34:31.130Z,23.63
2019-03-01T03:37:03.541Z,24.07
2019-03-01T03:39:36.328Z,24.13
2019-03-01T03:42:10.921Z,23.40
2019-03-01T03:44:43.738Z,24.13
2019-03-01T03:47:16.322Z,24.97
2019-03-01T03:49:50.285Z,24.20
2019-03-01T03:52:22.691Z,25.50
2019-03-01T03:54:56.002Z,25.27
2019-03-01T03:57:29.111Z,25.67
2019-03-01T04:00:01.709Z,25.43
2019-03-01T04:02:36.504Z,26.50
2019-03-01T04:05:10.075Z,28.53
2019-03-01T04:07:43.357Z,29.17
2019-03-01T04:10:16.104Z,28.00
2019-03-01T04:12:49.067Z,28.70
2019-03-01T04:15:21.761Z,28.53
2019-03-01T04:17:54.379Z,28.03
2019-03-01T04:20:28.647Z,28.27
2019-03-01T04:23:01.191Z,28.07
2019-03-01T04:25:33.785Z,28.70
2019-03-01T04:28:07.167Z,29.67
2019-03-01T04:30:39.898Z,27.87
2019-03-01T04:33:12.614Z,28.67
2019-03-01T04:35:46.534Z,29.63
2019-03-01T04:38:20.540Z,28.17
2019-03-01T04:40:53.106Z,28.93
2019-03-01T04:43:26.730Z,29.50
2019-03-01T04:45:59.277Z,31.07
2019-03-01T04:48:31.674Z,30.03
2019-03-01T04:51:05.495Z,30.67
2019-03-01T04:53:38.808Z,29.37
2019-03-01T04:56:11.418Z,29.77
2019-03-01T04:58:44.423Z,29.80
2019-03-01T05:01:17.035Z,29.57
2019-03-01T05:03:49.588Z,31.90
2019-03-01T05:06:24.026Z,28.10
2019-03-01T05:08:56.555Z,29.23
2019-03-01T05:11:29.010Z,30.98
2019-03-01T05:14:01.687Z,27.57
2019-03-01T05:16:34.325Z,27.43
2019-03-01T05:19:07.651Z,26.13
2019-03-01T05:21:41.472Z,27.33
2019-03-01T05:24:14.034Z,28.43
2019-03-01T05:26:47.292Z,27.10
2019-03-01T05:29:20.079Z,31.05
2019-03-01T05:31:53.334Z,27.53
2019-03-01T05:34:27.494Z,27.30
2019-03-01T05:37:01.348Z,27.47
2019-03-01T05:39:34.454Z,28.30
2019-03-01T05:42:07.092Z,28.43
2019-03-01T05:44:41.103Z,28.43
2019-03-01T05:47:15.367Z,33.17
2019-03-01T05:49:48.655Z,30.60
2019-03-01T05:52:21.518Z,29.33
2019-03-01T05:54:54.099Z,34.63
2019-03-01T05:57:26.687Z,29.40
2019-03-01T06:00:01.411Z,29.27
2019-03-01T06:03:13.608Z,29.13
2019-03-01T06:05:46.238Z,34.75
2019-03-01T06:09:00.959Z,29.80
2019-03-01T06:12:09.338Z,34.30
2019-03-01T06:15:26.475Z,29.47
2019-03-01T06:18:41.642Z,33.20
2019-03-01T06:22:16.900Z,29.27
2019-03-01T06:25:17.226Z,30.10
2019-03-01T06:28:18.963Z,29.40
2019-03-01T06:32:01.418Z,36.95
2019-03-01T06:35:45.502Z,37.83
2019-03-01T06:39:30.481Z,32.67
2019-03-01T06:42:53.694Z,30.93
2019-03-01T06:46:27.024Z,36.95
2019-03-01T06:49:08.006Z,32.50
2019-03-01T06:51:40.710Z,32.73
2019-03-01T06:54:13.181Z,32.13
2019-03-01T06:56:46.877Z,33.93
2019-03-01T06:59:21.468Z,33.97
2019-03-01T07:01:54.328Z,39.70
2019-03-01T07:04:27.116Z,35.07
2019-03-01T07:07:02.046Z,35.27
2019-03-01T07:09:35.942Z,35.70
2019-03-01T07:12:08.939Z,35.00
2019-03-01T07:14:41.582Z,35.03
2019-03-01T07:17:14.595Z,37.37
2019-03-01T07:19:51.235Z,36.47
2019-03-01T07:22:23.912Z,38.20
2019-03-01T07:24:57.091Z,44.77
2019-03-01T07:27:29.613Z,52.53
2019-03-01T07:30:12.776Z,52.80
2019-03-01T07:32:47.001Z,54.20
2019-03-01T07:35:19.696Z,55.73
2019-03-01T07:37:54.659Z,61.83
2019-03-01T07:40:28.401Z,63.67
2019-03-01T07:43:00.887Z,64.03
2019-03-01T07:45:33.844Z,64.87
2019-03-01T07:48:07.288Z,66.27
2019-03-01T07:50:42.914Z,70.27
2019-03-01T07:53:18.647Z,78.65
2019-03-01T07:55:52.169Z,86.13
2019-03-01T07:58:26.803Z,76.87
2019-03-01T08:00:59.761Z,90.82
2019-03-01T08:03:32.968Z,79.90
2019-03-01T08:06:06.431Z,82.67
2019-03-01T08:08:40.067Z,80.57
2019-03-01T08:11:12.824Z,84.53
2019-03-01T08:13:53.201Z,85.47
2019-03-01T08:16:26.816Z,86.57
2019-03-01T08:19:03.291Z,91.70
2019-03-01T08:21:36.251Z,88.93
2019-03-01T08:24:10.982Z,92.73
2019-03-01T08:26:48.733Z,98.23
2019-03-01T08:29:22.936Z,93.47
2019-03-01T08:31:57.124Z,96.87
2019-03-01T08:34:30.567Z,100.00
2019-03-01T08:37:08.146Z,96.23
2019-03-01T08:39:43.960Z,101.47
2019-03-01T08:42:16.647Z,104.93
2019-03-01T08:44:51.273Z,103.97
2019-03-01T08:47:25.264Z,123.53
2019-03-01T08:50:00.118Z,110.47
2019-03-01T08:52:33.110Z,109.77
2019-03-01T08:55:08.201Z,112.40
2019-03-01T08:57:49.301Z,109.57
2019-03-01T09:00:26.900Z,111.30
2019-03-01T09:03:11.134Z,111.80
2019-03-01T09:05:44.686Z,110.07
2019-03-01T09:08:19.317Z,116.63
2019-03-01T09:10:52.452Z,144.55
2019-03-01T09:13:26.751Z,128.60
2019-03-01T09:16:00.008Z,128.33
2019-03-01T09:18:36.514Z,141.30
2019-03-01T09:21:12.334Z,147.77
2019-03-01T09:23:47.983Z,148.77
2019-03-01T09:26:26.447Z,153.30
2019-03-01T09:29:00.655Z,177.55
2019-03-01T09:31:47.784Z,133.70
2019-03-01T09:34:22.823Z,118.47
2019-03-01T09:37:01.613Z,104.13
2019-03-01T09:39:36.151Z,96.67
2019-03-01T09:42:15.501Z,90.40
2019-03-01T09:44:50.034Z,96.33
2019-03-01T09:47:25.255Z,98.60
2019-03-01T09:49:59.967Z,96.97
2019-03-01T09:52:40.004Z,91.47
2019-03-01T09:55:17.440Z,89.87
2019-03-01T09:57:53.200Z,90.73
2019-03-01T10:00:27.768Z,83.53
2019-03-01T10:03:01.101Z,79.90
2019-03-01T10:05:34.744Z,75.43
2019-03-01T10:08:07.826Z,71.60
2019-03-01T10:10:40.535Z,76.23
2019-03-01T10:13:13.229Z,80.17
2019-03-01T10:15:46.359Z,80.03
2019-03-01T10:18:19.804Z,82.73
2019-03-01T10:20:53.522Z,96.15
2019-03-01T10:23:28.751Z,86.97
2019-03-01T10:26:01.647Z,95.12
2019-03-01T10:28:35.453Z,91.55
2019-03-01T10:31:08.492Z,87.93
2019-03-01T10:33:41.204Z,83.57
2019-03-01T10:36:19.742Z,71.60
2019-03-01T10:38:56.032Z,81.00
2019-03-01T10:41:29.224Z,70.43
2019-03-01T10:44:03.226Z,67.50
2019-03-01T10:46:36.795Z,77.45
2019-03-01T10:49:10.006Z,68.87
2019-03-01T10:51:42.765Z,70.13
2019-03-01T10:54:17.696Z,67.50
2019-03-01T10:56:52.004Z,65.33
2019-03-01T10:59:25.360Z,71.37
2019-03-01T11:01:58.878Z,73.83
2019-03-01T11:04:33.254Z,73.60
2019-03-01T11:07:06.689Z,70.97
2019-03-01T11:09:39.371Z,76.53
2019-03-01T11:12:17.941Z,76.40
2019-03-01T11:14:51.420Z,73.97
2019-03-01T11:17:24.854Z,69.80
2019-03-01T11:19:57.514Z,70.00
2019-03-01T11:22:30.035Z,69.33
2019-03-01T11:25:05.991Z,69.70
2019-03-01T11:27:38.508Z,73.83
2019-03-01T11:30:31.313Z,66.73
2019-03-01T11:33:03.889Z,71.93
2019-03-01T11:35:42.590Z,68.97
2019-03-01T11:38:19.797Z,66.20
2019-03-01T11:40:55.814Z,63.23
2019-03-01T11:43:31.197Z,58.58
2019-03-01T11:46:04.226Z,47.23
2019-03-01T11:48:38.170Z,48.70
2019-03-01T11:51:12.592Z,56.97
2019-03-01T11:53:51.825Z,50.60
2019-03-01T11:56:27.274Z,50.30
2019-03-01T11:59:00.513Z,50.00
2019-03-01T12:01:34.816Z,51.30
2019-03-01T12:04:08.644Z,52.03
2019-03-01T12:06:41.397Z,51.20
2019-03-01T12:09:14.439Z,52.47
2019-03-01T12:11:48.579Z,55.17
2019-03-01T12:14:22.317Z,56.27
2019-03-01T12:16:57.258Z,54.00
2019-03-01T12:19:29.812Z,56.57
2019-03-01T12:22:03.589Z,56.83
2019-03-01T12:24:36.157Z,63.65
2019-03-01T12:27:11.756Z,53.80
2019-03-01T12:29:47.509Z,51.13
2019-03-01T12:32:23.430Z,50.80
2019-03-01T12:34:58.149Z,54.63
2019-03-01T12:37:34.535Z,64.90
2019-03-01T12:40:11.112Z,68.32
2019-03-01T12:42:45.194Z,61.27
2019-03-01T12:45:19.909Z,59.00
2019-03-01T12:47:53.966Z,60.73
2019-03-01T12:50:28.234Z,58.23
2019-03-01T12:53:01.171Z,47.47
2019-03-01T12:55:33.886Z,41.47
2019-03-01T12:58:08.126Z,33.03
2019-03-01T13:00:42.920Z,25.50
2019-03-01T13:03:18.373Z,23.90
2019-03-01T13:05:50.996Z,24.63
2019-03-01T13:08:24.952Z,27.63
2019-03-01T13:10:58.182Z,28.73
2019-03-01T13:13:34.744Z,29.47
2019-03-01T13:16:12.286Z,27.03
2019-03-01T13:18:47.722Z,19.93
2019-03-01T13:21:27.052Z,16.33
2019-03-01T13:24:00.875Z,16.27
2019-03-01T13:26:33.825Z,18.93
2019-03-01T13:29:06.400Z,20.37
2019-03-01T13:31:39.726Z,21.70
2019-03-01T13:34:14.488Z,21.47
2019-03-01T13:36:47.096Z,21.63
2019-03-01T13:39:20.767Z,23.73
2019-03-01T13:41:56.379Z,22.20
2019-03-01T13:44:29.500Z,21.47
2019-03-01T13:47:05.394Z,24.65
2019-03-01T13:49:42.137Z,24.00
2019-03-01T13:52:16.734Z,23.30
2019-03-01T13:54:52.384Z,23.47
2019-03-01T13:57:25.580Z,27.17
2019-03-01T13:59:59.257Z,24.80
2019-03-01T14:02:34.064Z,22.87
2019-03-01T14:05:08.594Z,24.23
2019-03-01T14:07:45.382Z,25.77
2019-03-01T14:10:20.892Z,28.00
2019-03-01T14:12:58.305Z,27.23
2019-03-01T14:15:35.064Z,28.93
2019-03-01T14:18:11.359Z,27.57
2019-03-01T14:20:47.734Z,30.05
2019-03-01T14:23:25.011Z,28.90
2019-03-01T14:26:09.478Z,29.75
2019-03-01T14:28:46.132Z,26.03
2019-03-01T14:31:22.326Z,26.67
2019-03-01T14:33:57.655Z,25.23
2019-03-01T14:36:33.681Z,29.00
2019-03-01T14:39:17.822Z,26.27
2019-03-01T14:41:50.490Z,24.53
2019-03-01T14:44:27.062Z,24.23
2019-03-01T14:46:59.970Z,29.53
2019-03-01T14:49:36.734Z,33.07
2019-03-01T14:52:13.587Z,33.83
2019-03-01T14:54:48.740Z,35.83
2019-03-01T14:57:33.940Z,34.20
2019-03-01T15:00:41.096Z,36.83
2019-03-01T15:03:31.825Z,73.28
2019-03-01T15:06:19.134Z,72.83
2019-03-01T15:09:00.173Z,68.53
2019-03-01T15:11:35.032Z,69.13
2019-03-01T15:14:13.323Z,75.65
2019-03-01T15:16:47.740Z,61.57
2019-03-01T15:19:20.283Z,56.35
2019-03-01T15:21:57.040Z,43.43
2019-03-01T15:24:33.214Z,40.63
2019-03-01T15:27:10.586Z,32.57
2019-03-01T15:29:45.707Z,31.37
2019-03-01T15:32:19.802Z,30.23
2019-03-01T15:34:52.711Z,29.23
2019-03-01T15:37:25.740Z,31.87
2019-03-01T15:39:58.237Z,35.50
2019-03-01T15:42:31.020Z,40.00
2019-03-01T15:45:09.070Z,40.77
2019-03-01T15:47:45.190Z,36.57
2019-03-01T15:50:19.152Z,36.60
2019-03-01T15:52:52.018Z,34.60
2019-03-01T15:55:25.852Z,35.17
2019-03-01T15:58:02.526Z,33.60
2019-03-01T16:00:36.429Z,36.90
2019-03-01T16:03:14.357Z,33.70
2019-03-01T16:05:48.133Z,34.50
2019-03-01T16:08:21.006Z,32.87
2019-03-01T16:10:53.658Z,31.43
2019-03-01T16:13:28.394Z,29.97
2019-03-01T16:16:01.981Z,27.77
2019-03-01T16:18:40.786Z,26.97
2019-03-01T16:21:22.084Z,25.43
2019-03-01T16:23:55.631Z,25.07
2019-03-01T16:26:29.983Z,23.07
2019-03-01T16:29:03.940Z,23.57
2019-03-01T16:31:40.034Z,22.03
2019-03-01T16:34:17.267Z,22.33
2019-03-01T16:36:55.171Z,22.73
2019-03-01T16:39:27.823Z,20.37
2019-03-01T16:42:01.176Z,21.23
2019-03-01T16:44:35.747Z,20.77
2019-03-01T16:47:09.738Z,19.47
2019-03-01T16:49:43.536Z,20.95
2019-03-01T16:52:17.150Z,20.80
2019-03-01T16:54:51.545Z,21.10
2019-03-01T16:57:26.706Z,18.47
2019-03-01T17:00:02.953Z,18.60
2019-03-01T17:02:38.650Z,17.83
2019-03-01T17:05:16.684Z,20.43
2019-03-01T17:07:51.491Z,19.37
2019-03-01T17:10:26.372Z,21.03
2019-03-01T17:13:03.093Z,22.73
2019-03-01T17:15:36.977Z,21.23
2019-03-01T17:18:13.462Z,22.53
2019-03-01T17:20:46.120Z,22.27
2019-03-01T17:23:20.026Z,23.13
2019-03-01T17:25:53.452Z,21.60
2019-03-01T17:28:27.938Z,20.30
2019-03-01T17:31:03.527Z,21.30
2019-03-01T17:33:36.395Z,23.47
2019-03-01T17:36:09.358Z,32.17
2019-03-01T17:38:45.995Z,25.27
2019-03-01T17:41:18.981Z,27.57
2019-03-01T17:43:53.829Z,29.23
2019-03-01T17:46:29.839Z,25.33
2019-03-01T17:49:05.615Z,20.93
2019-03-01T17:51:38.539Z,21.13
2019-03-01T17:54:11.868Z,20.67
2019-03-01T17:56:45.462Z,20.70
2019-03-01T17:59:20.128Z,21.60
2019-03-01T18:01:54.736Z,23.40
2019-03-01T18:04:28.996Z,23.90
2019-03-01T18:07:03.389Z,21.50
2019-03-01T18:09:36.554Z,21.63
2019-03-01T18:12:10.845Z,19.40
2019-03-01T18:14:45.806Z,15.60
2019-03-01T18:17:19.620Z,15.00
2019-03-01T18:19:53.519Z,15.27
2019-03-01T18:22:31.177Z,12.93
2019-03-01T18:25:04.984Z,11.60
2019-03-01T18:27:37.592Z,12.50
2019-03-01T18:30:19.872Z,12.53
2019-03-01T18:32:54.644Z,11.93
2019-03-01T18:35:52.545Z,11.57
2019-03-01T18:38:32.461Z,11.67
2019-03-01T18:44:22.358Z,11.87
2019-03-01T18:47:06.631Z,12.33
2019-03-01T18:49:39.260Z,12.03
2019-03-01T18:52:14.498Z,12.77
2019-03-01T18:54:52.103Z,13.70
2019-03-01T18:57:27.543Z,12.83
2019-03-01T19:00:01.286Z,12.53
2019-03-01T19:02:45.681Z,14.03
2019-03-01T19:05:21.622Z,13.10
2019-03-01T19:07:56.164Z,13.23
2019-03-01T19:10:30.573Z,13.23
2019-03-01T19:13:12.392Z,15.07
2019-03-01T19:15:54.412Z,14.80
2019-03-01T19:18:27.979Z,16.50
2019-03-01T19:21:07.956Z,17.33
2019-03-01T19:23:42.178Z,16.80
2019-03-01T19:26:16.038Z,16.83
2019-03-01T19:28:51.194Z,16.73
2019-03-01T19:31:26.823Z,16.50
2019-03-01T19:34:01.790Z,17.87
2019-03-01T19:36:38.965Z,17.93
2019-03-01T19:39:25.861Z,18.73
2019-03-01T19:42:00.470Z,18.17
2019-03-01T19:44:37.118Z,20.53
2019-03-01T19:47:31.241Z,20.93
2019-03-01T19:50:21.822Z,21.73
2019-03-01T19:52:59.500Z,26.60
2019-03-01T19:55:36.198Z,18.73
2019-03-01T19:58:11.907Z,17.93
2019-03-01T20:00:49.612Z,19.73
2019-03-01T20:03:31.806Z,19.07
2019-03-01T20:06:15.956Z,18.97
2019-03-01T20:08:50.779Z,18.83
2019-03-01T20:11:27.469Z,16.67
2019-03-01T20:14:02.143Z,17.13
2019-03-01T20:16:35.442Z,16.07
2019-03-01T20:19:08.950Z,17.57
2019-03-01T20:21:44.160Z,15.23
2019-03-01T20:24:21.951Z,16.20
2019-03-01T20:26:56.592Z,14.60
2019-03-01T20:29:29.777Z,13.73
2019-03-01T20:32:16.846Z,10.53
2019-03-01T20:34:50.222Z,10.30
2019-03-01T20:37:24.667Z,8.57
2019-03-01T20:40:26.904Z,8.40
2019-03-01T20:43:14.773Z,9.38
2019-03-01T20:45:50.730Z,7.10
2019-03-01T20:48:25.584Z,7.40
2019-03-01T20:51:06.241Z,6.57
2019-03-01T20:53:40.590Z,6.17
2019-03-01T20:56:17.209Z,6.23
2019-03-01T20:59:07.531Z,6.00
2019-03-01T21:01:50.834Z,5.57
2019-03-01T21:04:29.418Z,6.83
2019-03-01T21:07:15.646Z,6.10
2019-03-01T21:09:51.400Z,7.85
2019-03-01T21:12:27.324Z,6.47
2019-03-01T21:15:12.393Z,6.70
2019-03-01T21:17:45.236Z,6.53
2019-03-01T21:20:20.887Z,5.70
2019-03-01T21:22:54.349Z,5.83
2019-03-01T21:25:27.061Z,6.20
2019-03-01T21:28:01.949Z,5.53
2019-03-01T21:30:35.286Z,6.33
2019-03-01T21:33:09.736Z,6.50
2019-03-01T21:35:47.869Z,5.90
2019-03-01T21:38:24.732Z,5.63
2019-03-01T21:40:57.320Z,6.12
2019-03-01T21:43:37.561Z,5.87
2019-03-01T21:46:10.193Z,5.87
2019-03-01T21:48:42.755Z,6.30
2019-03-01T21:51:18.551Z,6.10
2019-03-01T21:53:55.769Z,5.83
2019-03-01T21:56:32.172Z,5.93
2019-03-01T21:59:06.643Z,5.80
2019-03-01T22:01:41.482Z,5.87
2019-03-01T22:04:15.543Z,5.73
2019-03-01T22:06:50.184Z,6.30
2019-03-01T22:13:10.598Z,6.00
2019-03-01T22:15:45.349Z,6.60
2019-03-01T22:18:20.440Z,7.37
2019-03-01T22:20:57.473Z,7.40
2019-03-01T22:23:31.312Z,7.07
2019-03-01T22:26:05.934Z,7.73
2019-03-01T22:28:40.224Z,8.20
2019-03-01T22:31:13.443Z,8.03
2019-03-01T22:34:01.190Z,7.90
2019-03-01T22:36:34.377Z,8.50
2019-03-01T22:39:08.594Z,8.13
2019-03-01T22:41:44.298Z,8.40
2019-03-01T22:44:16.920Z,10.23
2019-03-01T22:46:50.197Z,9.80
2019-03-01T22:49:24.035Z,10.50
2019-03-01T22:52:05.354Z,10.43
2019-03-01T22:54:39.110Z,10.37
2019-03-01T22:57:12.994Z,10.13
2019-03-01T22:59:47.275Z,11.47
2019-03-01T23:02:26.326Z,11.93
2019-03-01T23:05:00.526Z,12.93
2019-03-01T23:07:37.156Z,13.20
2019-03-01T23:10:18.478Z,13.23
2019-03-01T23:12:54.700Z,14.20
2019-03-01T23:15:28.155Z,14.00
2019-03-01T23:18:05.676Z,13.83
2019-03-01T23:20:41.090Z,14.30
2019-03-01T23:23:17.850Z,15.10
2019-03-01T23:25:58.642Z,15.00
2019-03-01T23:28:34.013Z,14.33
2019-03-01T23:31:17.219Z,13.23
2019-03-01T23:33:51.451Z,15.10
2019-03-01T23:36:24.920Z,14.80
2019-03-01T23:39:01.505Z,15.10
2019-03-01T23:41:34.135Z,15.90
2019-03-01T23:44:07.816Z,16.03
2019-03-01T23:46:40.416Z,17.63
2019-03-01T23:49:13.082Z,16.00
2019-03-01T23:51:47.888Z,16.93
2019-03-01T23:54:20.608Z,18.17
2019-03-01T23:56:53.294Z,18.12
2019-03-01T23:59:26.679Z,18.20
